Time;durP1;ratioP1;P1;durP2;ratioP2;P2;SDS_P1;SDS_P2;PMS_P1;PMS_P2;Temp;Humidity;BMP_temperature;BMP_pressure;BME280_temperature;BME280_humidity;BME280_pressure;Samples;Min_cycle;Max_cycle;Signal;HPM_P1;HPM_P2
2023/05/02 00:00:04;;;;;;;;;;;19.40;51.70;;;;;;6268007;28;20073;-72
2023/05/02 00:03:05;;;;;;;;;;;19.40;51.70;;;;;;6268373;28;19908;-72
2023/05/02 00:06:05;;;;;;;;;;;19.40;52.60;;;;;;6268434;28;19912;-71
2023/05/02 00:09:06;;;;;;;;;;;19.40;50.40;;;;;;6250185;28;20364;-72
2023/05/02 00:12:07;;;;;;;;;;;19.40;49.90;;;;;;6262289;28;19909;-73
2023/05/02 00:15:08;;;;;;;;;;;19.50;50.20;;;;;;6269252;28;20338;-73
2023/05/02 00:18:09;;;;;;;;;;;19.60;49.20;;;;;;6267948;28;19998;-71
2023/05/02 00:21:10;;;;;;;;;;;19.60;48.90;;;;;;6268808;28;19909;-71
2023/05/02 00:24:10;;;;;;;;;;;19.70;48.60;;;;;;6267637;28;20387;-68
2023/05/02 00:27:11;;;;;;;;;;;19.80;48.30;;;;;;6268910;28;19931;-70
2023/05/02 00:30:12;;;;;;;;;;;19.80;48.20;;;;;;6268698;28;19965;-71
2023/05/02 00:33:13;;;;;;;;;;;19.90;48.00;;;;;;6268805;28;19923;-71
2023/05/02 00:36:14;;;;;;;;;;;19.90;47.90;;;;;;6267194;28;19913;-71
2023/05/02 00:39:15;;;;;;;;;;;19.90;47.80;;;;;;6268684;28;19996;-71
2023/05/02 00:42:16;;;;;;;;;;;19.90;47.70;;;;;;6268788;28;19959;-71
2023/05/02 00:45:17;;;;;;;;;;;20.00;47.50;;;;;;6268391;28;19999;-71
2023/05/02 00:48:19;;;;;;;;;;;20.00;47.50;;;;;;6267056;28;20012;-71
2023/05/02 00:51:20;;;;;;;;;;;20.00;47.50;;;;;;6268600;28;19908;-72
2023/05/02 00:54:20;;;;;;;;;;;20.00;47.30;;;;;;6268018;28;20400;-71
2023/05/02 00:57:21;;;;;;;;;;;20.00;47.20;;;;;;6268446;28;19951;-73
2023/05/02 01:00:26;;;;;;;;;;;20.00;47.30;;;;;;6268647;28;19990;-74
2023/05/02 01:03:35;;;;;;;;;;;20.00;47.10;;;;;;6268445;28;20309;-73
2023/05/02 01:06:40;;;;;;;;;;;20.00;47.10;;;;;;6268378;28;19909;-73
2023/05/02 01:10:05;;;;;;;;;;;20.00;47.00;;;;;;6244216;28;19910;-73
2023/05/02 01:13:11;;;;;;;;;;;20.00;47.10;;;;;;6254787;28;19909;-73
2023/05/02 01:16:13;;;;;;;;;;;20.00;47.00;;;;;;6267869;28;20366;-73
2023/05/02 01:19:34;;;;;;;;;;;20.00;47.00;;;;;;6273185;28;19908;-73
2023/05/02 01:22:37;;;;;;;;;;;20.00;46.90;;;;;;6272869;28;20345;-73
2023/05/02 01:25:44;;;;;;;;;;;20.00;46.90;;;;;;6272146;28;19921;-74
2023/05/02 01:28:53;;;;;;;;;;;20.00;46.70;;;;;;6272949;28;19909;-74
2023/05/02 01:31:55;;;;;;;;;;;20.10;46.90;;;;;;6271824;28;19915;-72
2023/05/02 01:34:57;;;;;;;;;;;20.10;46.80;;;;;;6272762;28;19917;-73
2023/05/02 01:37:58;;;;;;;;;;;20.10;46.70;;;;;;6272790;28;19956;-73
2023/05/02 01:41:02;;;;;;;;;;;20.10;46.70;;;;;;6271100;28;19956;-71
2023/05/02 01:44:03;;;;;;;;;;;20.10;46.70;;;;;;6272863;28;19913;-72
2023/05/02 01:47:04;;;;;;;;;;;20.10;46.60;;;;;;6272419;28;19919;-71
2023/05/02 01:50:10;;;;;;;;;;;20.10;46.70;;;;;;6272775;28;20292;-71
2023/05/02 01:53:12;;;;;;;;;;;20.10;46.60;;;;;;6271455;28;19915;-71
2023/05/02 01:56:15;;;;;;;;;;;20.10;46.60;;;;;;6272281;28;19963;-71
2023/05/02 01:59:19;;;;;;;;;;;20.10;46.50;;;;;;6270823;28;19913;-73
2023/05/02 02:02:20;;;;;;;;;;;20.10;46.50;;;;;;6272331;28;20319;-73
2023/05/02 02:05:21;;;;;;;;;;;20.10;46.40;;;;;;6271076;28;19916;-73
2023/05/02 02:08:22;;;;;;;;;;;20.10;46.40;;;;;;6270894;28;19962;-73
2023/05/02 02:11:52;;;;;;;;;;;20.10;46.40;;;;;;6272144;28;19917;-73
2023/05/02 02:14:58;;;;;;;;;;;20.10;46.40;;;;;;6245782;28;20354;-74
2023/05/02 02:18:00;;;;;;;;;;;20.10;46.30;;;;;;6254477;28;20374;-72
2023/05/02 02:21:01;;;;;;;;;;;20.10;46.50;;;;;;6271764;28;20285;-71
2023/05/02 02:24:03;;;;;;;;;;;20.00;47.40;;;;;;6272277;28;19915;-73
2023/05/02 02:27:04;;;;;;;;;;;19.90;47.80;;;;;;6271734;28;19913;-73
2023/05/02 02:30:05;;;;;;;;;;;19.80;48.40;;;;;;6270773;28;19913;-73
2023/05/02 02:33:06;;;;;;;;;;;19.80;48.80;;;;;;6270085;28;20507;-73
2023/05/02 02:36:15;;;;;;;;;;;19.70;49.00;;;;;;6271399;28;20005;-73
2023/05/02 02:39:19;;;;;;;;;;;19.70;48.70;;;;;;6261978;28;19909;-74
2023/05/02 02:42:35;;;;;;;;;;;19.70;49.20;;;;;;6246790;28;20285;-71
2023/05/02 02:45:50;;;;;;;;;;;19.70;49.40;;;;;;6245144;28;19916;-73
2023/05/02 02:49:01;;;;;;;;;;;19.70;49.40;;;;;;6256877;28;20492;-73
2023/05/02 02:52:06;;;;;;;;;;;19.60;49.50;;;;;;6269756;28;20266;-73
2023/05/02 02:55:16;;;;;;;;;;;19.60;49.80;;;;;;6270753;28;20403;-73
2023/05/02 02:58:35;;;;;;;;;;;19.60;49.90;;;;;;6271067;28;19913;-73
2023/05/02 03:01:38;;;;;;;;;;;19.60;50.00;;;;;;6269410;28;20365;-73
2023/05/02 03:04:42;;;;;;;;;;;19.60;50.10;;;;;;6270775;28;20530;-70
2023/05/02 03:07:43;;;;;;;;;;;19.60;50.30;;;;;;6262899;28;19940;-74
2023/05/02 03:10:43;;;;;;;;;;;19.60;50.30;;;;;;6268969;28;20310;-73
2023/05/02 03:13:44;;;;;;;;;;;19.60;50.40;;;;;;6270754;28;20677;-74
2023/05/02 03:16:44;;;;;;;;;;;19.60;50.40;;;;;;6270469;28;19909;-73
2023/05/02 03:19:46;;;;;;;;;;;19.60;50.40;;;;;;6270113;28;19909;-73
2023/05/02 03:22:46;;;;;;;;;;;19.60;50.40;;;;;;6270105;28;19908;-74
2023/05/02 03:25:47;;;;;;;;;;;19.60;50.50;;;;;;6270661;28;19912;-73
2023/05/02 03:28:49;;;;;;;;;;;19.60;50.50;;;;;;6270137;28;19951;-73
2023/05/02 03:31:50;;;;;;;;;;;19.60;50.50;;;;;;6269054;28;19963;-74
2023/05/02 03:34:51;;;;;;;;;;;19.60;50.60;;;;;;6268558;28;19970;-73
2023/05/02 03:37:51;;;;;;;;;;;19.60;50.70;;;;;;6268727;28;19920;-73
2023/05/02 03:40:55;;;;;;;;;;;19.60;50.80;;;;;;6268773;28;19967;-73
2023/05/02 03:43:56;;;;;;;;;;;19.50;50.60;;;;;;6268829;28;19909;-73
2023/05/02 03:46:56;;;;;;;;;;;19.50;50.70;;;;;;6268707;28;19915;-73
2023/05/02 03:49:58;;;;;;;;;;;19.50;50.70;;;;;;6269686;28;19973;-73
2023/05/02 03:52:58;;;;;;;;;;;19.50;50.70;;;;;;6269601;28;20427;-73
2023/05/02 03:55:59;;;;;;;;;;;19.50;50.80;;;;;;6269742;28;19917;-71
2023/05/02 03:59:00;;;;;;;;;;;19.50;50.80;;;;;;6269609;28;19904;-71
2023/05/02 04:02:00;;;;;;;;;;;19.50;50.90;;;;;;6267946;28;19909;-71
2023/05/02 04:05:01;;;;;;;;;;;19.50;50.90;;;;;;6267929;28;19912;-71
2023/05/02 04:08:02;;;;;;;;;;;19.50;50.90;;;;;;6259341;28;19909;-70
2023/05/02 04:11:03;;;;;;;;;;;19.50;50.90;;;;;;6243162;28;19909;-71
2023/05/02 04:14:03;;;;;;;;;;;19.50;51.00;;;;;;6263609;28;19939;-69
2023/05/02 04:17:04;;;;;;;;;;;19.50;51.00;;;;;;6269200;28;20027;-73
2023/05/02 04:20:05;;;;;;;;;;;19.50;51.00;;;;;;6268019;28;19916;-73
2023/05/02 04:23:05;;;;;;;;;;;19.50;51.00;;;;;;6268414;28;19909;-72
2023/05/02 04:26:06;;;;;;;;;;;19.50;51.00;;;;;;6268953;28;19913;-71
2023/05/02 04:29:07;;;;;;;;;;;19.50;51.10;;;;;;6267838;28;19913;-71
2023/05/02 04:32:08;;;;;;;;;;;19.50;51.10;;;;;;6268857;28;19915;-71
2023/05/02 04:35:08;;;;;;;;;;;19.50;51.10;;;;;;6267214;28;19913;-71
2023/05/02 04:38:09;;;;;;;;;;;19.50;51.20;;;;;;6267119;28;19909;-70
2023/05/02 04:41:10;;;;;;;;;;;19.50;51.20;;;;;;6268808;28;20289;-71
2023/05/02 04:44:11;;;;;;;;;;;19.40;51.10;;;;;;6268715;28;20549;-73
2023/05/02 04:47:11;;;;;;;;;;;19.50;51.20;;;;;;6268750;28;19977;-75
2023/05/02 04:50:12;;;;;;;;;;;19.50;51.20;;;;;;6245961;28;20393;-75
2023/05/02 04:53:13;;;;;;;;;;;19.50;51.20;;;;;;6266918;28;20413;-74
2023/05/02 04:56:14;;;;;;;;;;;19.40;51.20;;;;;;6257316;28;19913;-73
2023/05/02 04:59:14;;;;;;;;;;;19.40;51.20;;;;;;6254043;28;19916;-74
2023/05/02 05:02:15;;;;;;;;;;;19.40;51.20;;;;;;6242217;28;19919;-73
2023/05/02 05:05:15;;;;;;;;;;;19.50;51.30;;;;;;6243571;28;19996;-76
2023/05/02 05:08:16;;;;;;;;;;;19.40;51.20;;;;;;6247589;28;19916;-72
2023/05/02 05:11:17;;;;;;;;;;;19.40;51.30;;;;;;6258020;28;20365;-74
2023/05/02 05:14:17;;;;;;;;;;;19.50;51.40;;;;;;6268449;28;20035;-73
2023/05/02 05:17:18;;;;;;;;;;;19.40;51.30;;;;;;6243490;28;19936;-73
2023/05/02 05:20:19;;;;;;;;;;;19.40;51.40;;;;;;6245076;28;19917;-73
2023/05/02 05:23:19;;;;;;;;;;;19.40;51.30;;;;;;6267497;28;20528;-69
2023/05/02 05:26:22;;;;;;;;;;;19.40;51.40;;;;;;6253852;28;19913;-72
2023/05/02 05:29:24;;;;;;;;;;;19.50;51.70;;;;;;6267200;28;20031;-72
2023/05/02 05:32:24;;;;;;;;;;;19.50;51.40;;;;;;6268264;28;19915;-72
2023/05/02 05:35:26;;;;;;;;;;;19.50;51.50;;;;;;6268577;28;19913;-74
2023/05/02 05:38:26;;;;;;;;;;;19.50;51.50;;;;;;6268542;28;19913;-72
2023/05/02 05:41:27;;;;;;;;;;;19.50;51.50;;;;;;6264320;28;19909;-73
2023/05/02 05:44:28;;;;;;;;;;;19.40;51.50;;;;;;6266941;28;19915;-73
2023/05/02 05:47:29;;;;;;;;;;;19.50;51.60;;;;;;6268218;28;19916;-73
2023/05/02 05:50:29;;;;;;;;;;;19.40;51.60;;;;;;6266658;28;20051;-73
2023/05/02 05:53:30;;;;;;;;;;;19.40;51.50;;;;;;6261874;28;19949;-72
2023/05/02 05:56:31;;;;;;;;;;;19.40;51.60;;;;;;6249764;28;19960;-71
2023/05/02 05:59:33;;;;;;;;;;;19.40;51.60;;;;;;6255496;28;20362;-71
2023/05/02 06:02:34;;;;;;;;;;;19.40;51.60;;;;;;6266465;28;20541;-73
2023/05/02 06:05:36;;;;;;;;;;;19.40;51.60;;;;;;6271525;28;19934;-71
2023/05/02 06:08:36;;;;;;;;;;;19.40;51.70;;;;;;6269080;28;19913;-71
2023/05/02 06:11:38;;;;;;;;;;;19.40;51.70;;;;;;6250893;28;20377;-70
2023/05/02 06:14:39;;;;;;;;;;;19.40;51.70;;;;;;6274500;28;19913;-70
2023/05/02 06:17:39;;;;;;;;;;;19.40;51.70;;;;;;6274772;28;19935;-71
2023/05/02 06:20:40;;;;;;;;;;;19.40;51.70;;;;;;6273147;28;19910;-70
2023/05/02 06:23:41;;;;;;;;;;;19.40;51.70;;;;;;6273023;28;19916;-70
2023/05/02 06:26:41;;;;;;;;;;;19.40;51.80;;;;;;6272831;28;20003;-71
2023/05/02 06:29:42;;;;;;;;;;;19.40;51.80;;;;;;6274677;28;19908;-70
2023/05/02 06:32:43;;;;;;;;;;;19.40;51.80;;;;;;6274330;28;19912;-70
2023/05/02 06:35:49;;;;;;;;;;;19.40;51.80;;;;;;6274543;28;19917;-71
2023/05/02 06:38:50;;;;;;;;;;;19.40;51.80;;;;;;6273727;28;19916;-71
2023/05/02 06:41:55;;;;;;;;;;;19.40;51.90;;;;;;6273049;28;20270;-69
2023/05/02 06:44:56;;;;;;;;;;;19.40;51.90;;;;;;6272640;28;20428;-70
2023/05/02 06:47:57;;;;;;;;;;;19.40;51.90;;;;;;6274311;28;19939;-70
2023/05/02 06:50:57;;;;;;;;;;;19.40;51.90;;;;;;6273242;28;19924;-70
2023/05/02 06:53:58;;;;;;;;;;;19.40;51.90;;;;;;6273313;28;20368;-70
2023/05/02 06:56:58;;;;;;;;;;;19.40;51.90;;;;;;6274465;28;19909;-71
2023/05/02 06:59:59;;;;;;;;;;;19.40;51.90;;;;;;6274632;28;19916;-69
2023/05/02 07:03:00;;;;;;;;;;;19.40;51.90;;;;;;6273917;28;20431;-69
2023/05/02 07:06:01;;;;;;;;;;;19.40;51.90;;;;;;6272649;28;19909;-69
2023/05/02 07:09:02;;;;;;;;;;;19.40;51.90;;;;;;6255652;28;20285;-69
2023/05/02 07:12:03;;;;;;;;;;;19.40;52.00;;;;;;6249175;28;19909;-71
2023/05/02 07:15:07;;;;;;;;;;;19.40;52.00;;;;;;6247517;28;20386;-71
2023/05/02 07:18:07;;;;;;;;;;;19.40;52.00;;;;;;6260878;28;19943;-71
2023/05/02 07:21:08;;;;;;;;;;;19.40;52.00;;;;;;6273503;28;20526;-69
2023/05/02 07:24:08;;;;;;;;;;;19.40;52.00;;;;;;6272285;28;19909;-69
2023/05/02 07:27:10;;;;;;;;;;;19.40;52.00;;;;;;6273570;28;19909;-69
2023/05/02 07:30:12;;;;;;;;;;;19.40;52.00;;;;;;6273395;28;19915;-69
2023/05/02 07:33:14;;;;;;;;;;;19.40;52.10;;;;;;6272880;28;20306;-72
2023/05/02 07:36:14;;;;;;;;;;;19.40;52.00;;;;;;6271454;28;19932;-73
2023/05/02 07:39:15;;;;;;;;;;;19.40;52.10;;;;;;6263036;28;19952;-72
2023/05/02 07:42:16;;;;;;;;;;;19.40;52.10;;;;;;6262460;28;19939;-73
2023/05/02 07:45:16;;;;;;;;;;;19.40;52.10;;;;;;6271872;28;19970;-72
2023/05/02 07:48:17;;;;;;;;;;;19.40;52.10;;;;;;6272014;28;19947;-73
2023/05/02 07:51:20;;;;;;;;;;;19.40;52.10;;;;;;6272745;28;20365;-71
2023/05/02 07:54:21;;;;;;;;;;;19.40;52.10;;;;;;6272261;28;19913;-71
2023/05/02 07:57:22;;;;;;;;;;;19.40;52.10;;;;;;6272851;28;19909;-70
2023/05/02 08:00:23;;;;;;;;;;;19.40;52.20;;;;;;6270507;28;20379;-71
2023/05/02 08:03:23;;;;;;;;;;;19.40;52.20;;;;;;6272144;28;19913;-70
2023/05/02 08:06:24;;;;;;;;;;;19.40;52.20;;;;;;6271416;28;19915;-73
2023/05/02 08:09:25;;;;;;;;;;;19.40;52.20;;;;;;6249031;28;19916;-73
2023/05/02 08:12:26;;;;;;;;;;;19.40;52.20;;;;;;6265433;28;19908;-74
2023/05/02 08:15:26;;;;;;;;;;;19.40;52.20;;;;;;6270354;28;19919;-73
2023/05/02 08:18:27;;;;;;;;;;;19.40;52.30;;;;;;6262245;28;19916;-72
2023/05/02 08:21:28;;;;;;;;;;;19.40;52.20;;;;;;6269106;28;19916;-72
2023/05/02 08:24:30;;;;;;;;;;;19.40;52.20;;;;;;6270111;28;19916;-72
2023/05/02 08:27:30;;;;;;;;;;;19.40;52.20;;;;;;6270902;28;19931;-73
2023/05/02 08:30:31;;;;;;;;;;;19.40;52.30;;;;;;6270316;28;19908;-71
2023/05/02 08:33:31;;;;;;;;;;;19.40;52.20;;;;;;6271423;28;19916;-71
2023/05/02 08:36:32;;;;;;;;;;;19.40;52.30;;;;;;6270387;28;19913;-71
2023/05/02 08:39:33;;;;;;;;;;;19.40;52.30;;;;;;6271385;28;19970;-70
2023/05/02 08:42:34;;;;;;;;;;;19.40;52.30;;;;;;6271535;28;19919;-70
2023/05/02 08:45:38;;;;;;;;;;;19.40;52.30;;;;;;6269464;28;19917;-70
2023/05/02 08:48:39;;;;;;;;;;;19.40;52.30;;;;;;6270884;28;19927;-71
2023/05/02 08:51:43;;;;;;;;;;;19.40;52.30;;;;;;6271108;28;19919;-69
2023/05/02 08:54:45;;;;;;;;;;;19.40;52.30;;;;;;6271077;28;20357;-72
2023/05/02 08:57:46;;;;;;;;;;;19.40;52.30;;;;;;6270616;28;19909;-72
2023/05/02 09:00:47;;;;;;;;;;;19.40;52.30;;;;;;6270625;28;20404;-73
2023/05/02 09:03:48;;;;;;;;;;;19.40;52.30;;;;;;6269356;28;19995;-73
2023/05/02 09:06:48;;;;;;;;;;;19.40;52.30;;;;;;6270421;28;19931;-73
2023/05/02 09:09:49;;;;;;;;;;;19.30;52.20;;;;;;6246559;28;19909;-73
2023/05/02 09:12:50;;;;;;;;;;;19.30;52.20;;;;;;6245068;28;19913;-73
2023/05/02 09:15:56;;;;;;;;;;;19.30;52.30;;;;;;6260270;28;19913;-73
2023/05/02 09:18:57;;;;;;;;;;;19.40;52.40;;;;;;6269599;28;19931;-72
2023/05/02 09:21:59;;;;;;;;;;;19.40;52.40;;;;;;6269338;28;19948;-73
2023/05/02 09:25:00;;;;;;;;;;;19.30;52.30;;;;;;6270597;28;20290;-71
2023/05/02 09:28:02;;;;;;;;;;;19.40;52.40;;;;;;6270708;28;19927;-73
2023/05/02 09:31:08;;;;;;;;;;;19.40;52.40;;;;;;6270753;28;19944;-72
2023/05/02 09:34:12;;;;;;;;;;;19.40;52.40;;;;;;6270163;28;19920;-70
2023/05/02 09:37:32;;;;;;;;;;;19.30;52.30;;;;;;6261102;28;19913;-70
2023/05/02 09:40:34;;;;;;;;;;;19.30;52.40;;;;;;6258865;28;19912;-71
2023/05/02 09:43:35;;;;;;;;;;;19.30;52.40;;;;;;6273870;28;20346;-71
2023/05/02 09:46:46;;;;;;;;;;;19.30;52.40;;;;;;6265765;28;19966;-69
2023/05/02 09:49:48;;;;;;;;;;;19.40;52.40;;;;;;6269113;28;20286;-70
2023/05/02 09:53:10;;;;;;;;;;;19.30;52.40;;;;;;6273632;28;19935;-70
2023/05/02 09:56:11;;;;;;;;;;;19.30;52.30;;;;;;6274658;28;19963;-71
2023/05/02 09:59:13;;;;;;;;;;;19.40;52.50;;;;;;6274391;28;19980;-71
2023/05/02 10:02:14;;;;;;;;;;;19.40;52.60;;;;;;6265495;28;19951;-71
2023/05/02 10:05:16;;;;;;;;;;;19.40;52.50;;;;;;6248060;28;20311;-74
2023/05/02 10:08:17;;;;;;;;;;;19.40;52.50;;;;;;6245000;28;20404;-72
2023/05/02 10:11:18;;;;;;;;;;;19.40;52.40;;;;;;6271171;28;19917;-72
2023/05/02 10:14:20;;;;;;;;;;;19.40;52.50;;;;;;6264092;28;19917;-71
2023/05/02 10:17:24;;;;;;;;;;;19.40;52.50;;;;;;6258955;28;19909;-71
2023/05/02 10:20:30;;;;;;;;;;;19.40;52.50;;;;;;6268302;28;19912;-71
2023/05/02 10:23:31;;;;;;;;;;;19.40;52.50;;;;;;6265307;28;20306;-72
2023/05/02 10:26:33;;;;;;;;;;;19.30;52.50;;;;;;6280467;28;20358;-72
2023/05/02 10:29:34;;;;;;;;;;;19.30;52.50;;;;;;6273258;28;20309;-71
2023/05/02 10:32:35;;;;;;;;;;;19.40;52.50;;;;;;6273079;28;20321;-73
2023/05/02 10:35:37;;;;;;;;;;;19.30;53.20;;;;;;6246361;28;19932;-71
2023/05/02 10:38:38;;;;;;;;;;;19.30;52.60;;;;;;6251608;28;19959;-71
2023/05/02 10:41:39;;;;;;;;;;;19.30;52.50;;;;;;6273346;28;20289;-71
2023/05/02 10:44:40;;;;;;;;;;;19.40;52.50;;;;;;6247743;28;19912;-69
2023/05/02 10:47:42;;;;;;;;;;;19.40;52.50;;;;;;6246757;28;19916;-71
2023/05/02 10:50:46;;;;;;;;;;;19.30;52.50;;;;;;6265606;28;19925;-71
2023/05/02 10:53:49;;;;;;;;;;;19.30;52.60;;;;;;6271874;28;19916;-70
2023/05/02 10:57:08;;;;;;;;;;;19.30;52.60;;;;;;6269776;28;19912;-71
2023/05/02 11:00:19;;;;;;;;;;;19.30;52.60;;;;;;6260866;28;19908;-71
2023/05/02 11:03:40;;;;;;;;;;;19.30;52.60;;;;;;6271596;28;20366;-71
2023/05/02 11:07:01;;;;;;;;;;;19.30;52.60;;;;;;6271534;28;19909;-71
2023/05/02 11:10:16;;;;;;;;;;;19.30;52.70;;;;;;6236823;28;19913;-71
2023/05/02 11:13:37;;;;;;;;;;;19.30;52.90;;;;;;6256711;28;19909;-70
2023/05/02 11:16:56;;;;;;;;;;;19.40;52.90;;;;;;6246805;28;19921;-74
2023/05/02 11:20:17;;;;;;;;;;;19.40;52.80;;;;;;6256676;28;19958;-74
2023/05/02 11:23:24;;;;;;;;;;;19.40;52.80;;;;;;6272563;28;19955;-73
2023/05/02 11:26:25;;;;;;;;;;;19.40;52.90;;;;;;6272233;28;19913;-72
2023/05/02 11:29:45;;;;;;;;;;;19.40;52.90;;;;;;6269081;28;20324;-73
2023/05/02 11:33:05;;;;;;;;;;;19.40;52.90;;;;;;6248259;28;19995;-74
2023/05/02 11:36:06;;;;;;;;;;;19.40;52.70;;;;;;6245286;28;19963;-73
2023/05/02 11:39:17;;;;;;;;;;;19.40;52.70;;;;;;6246719;28;19913;-75
2023/05/02 11:42:28;;;;;;;;;;;19.40;52.50;;;;;;6246605;28;19909;-78
2023/05/02 11:45:38;;;;;;;;;;;19.40;52.60;;;;;;6257698;28;19995;-75
2023/05/02 11:48:40;;;;;;;;;;;19.40;52.60;;;;;;6272638;28;19924;-74
2023/05/02 11:51:40;;;;;;;;;;;19.40;52.60;;;;;;6272483;28;19984;-74
2023/05/02 11:54:41;;;;;;;;;;;19.40;52.60;;;;;;6270503;28;19916;-76
2023/05/02 11:57:44;;;;;;;;;;;19.40;52.60;;;;;;6246945;28;20134;-75
2023/05/02 12:00:45;;;;;;;;;;;19.40;52.70;;;;;;6269182;28;19931;-72
2023/05/02 12:03:48;;;;;;;;;;;19.40;52.70;;;;;;6269998;28;19948;-72
2023/05/02 12:06:55;;;;;;;;;;;19.40;52.70;;;;;;6270348;28;19963;-71
2023/05/02 12:09:56;;;;;;;;;;;19.40;52.70;;;;;;6269773;28;19995;-75
2023/05/02 12:13:03;;;;;;;;;;;19.40;52.70;;;;;;6247157;28;20393;-74
2023/05/02 12:16:05;;;;;;;;;;;19.40;52.70;;;;;;6245063;28;20019;-75
2023/05/02 12:19:06;;;;;;;;;;;19.40;52.70;;;;;;6246819;28;19915;-73
2023/05/02 12:22:07;;;;;;;;;;;19.40;52.80;;;;;;6259893;28;19913;-73
2023/05/02 12:25:08;;;;;;;;;;;19.40;52.70;;;;;;6246780;28;20390;-74
2023/05/02 12:28:09;;;;;;;;;;;19.40;52.80;;;;;;6269770;28;19913;-72
2023/05/02 12:31:10;;;;;;;;;;;19.40;52.80;;;;;;6262800;28;19914;-75
2023/05/02 12:34:11;;;;;;;;;;;19.40;52.90;;;;;;6245705;28;20119;-74
2023/05/02 12:37:12;;;;;;;;;;;19.40;52.90;;;;;;6253049;28;20392;-74
2023/05/02 12:40:16;;;;;;;;;;;19.40;52.80;;;;;;6245335;28;19909;-75
2023/05/02 12:43:18;;;;;;;;;;;19.30;52.80;;;;;;6245886;28;19909;-76
2023/05/02 12:46:19;;;;;;;;;;;19.40;52.90;;;;;;6245821;28;19909;-74
2023/05/02 12:49:19;;;;;;;;;;;19.40;52.90;;;;;;6260719;28;19921;-74
2023/05/02 12:52:40;;;;;;;;;;;19.30;52.90;;;;;;6270176;28;19920;-75
2023/05/02 12:55:41;;;;;;;;;;;19.30;52.90;;;;;;6245787;28;19914;-74
2023/05/02 12:58:45;;;;;;;;;;;19.30;52.90;;;;;;6271087;28;19936;-73
2023/05/02 13:01:46;;;;;;;;;;;19.30;52.80;;;;;;6261332;28;19912;-73
2023/05/02 13:04:47;;;;;;;;;;;19.30;52.90;;;;;;6244778;28;19913;-73
2023/05/02 13:07:47;;;;;;;;;;;19.30;52.80;;;;;;6260632;28;19940;-75
2023/05/02 13:10:48;;;;;;;;;;;19.30;52.90;;;;;;6268922;28;20393;-74
2023/05/02 13:13:49;;;;;;;;;;;19.30;52.90;;;;;;6271513;28;19943;-75
2023/05/02 13:16:52;;;;;;;;;;;19.30;52.90;;;;;;6273804;28;20382;-74
2023/05/02 13:19:52;;;;;;;;;;;19.30;52.90;;;;;;6275659;28;19916;-74
2023/05/02 13:22:53;;;;;;;;;;;19.30;52.90;;;;;;6274995;28;19912;-73
2023/05/02 13:25:54;;;;;;;;;;;19.30;52.90;;;;;;6275134;28;19912;-74
2023/05/02 13:28:55;;;;;;;;;;;19.30;52.90;;;;;;6275071;28;19909;-74
2023/05/02 13:31:55;;;;;;;;;;;19.30;52.90;;;;;;6273899;28;19916;-74
2023/05/02 13:34:56;;;;;;;;;;;19.30;52.90;;;;;;6273717;28;19971;-73
2023/05/02 13:37:57;;;;;;;;;;;19.30;52.80;;;;;;6263832;28;20298;-75
2023/05/02 13:40:57;;;;;;;;;;;19.40;52.90;;;;;;6274065;28;19908;-74
2023/05/02 13:43:58;;;;;;;;;;;19.40;52.80;;;;;;6275128;28;19913;-74
2023/05/02 13:46:59;;;;;;;;;;;19.40;52.80;;;;;;6272847;28;19992;-74
2023/05/02 13:50:00;;;;;;;;;;;19.40;52.80;;;;;;6250221;28;19925;-74
2023/05/02 13:53:00;;;;;;;;;;;19.40;52.80;;;;;;6256458;28;19917;-74
2023/05/02 13:56:01;;;;;;;;;;;19.40;52.80;;;;;;6274807;28;19916;-74
2023/05/02 13:59:02;;;;;;;;;;;19.40;52.90;;;;;;6274046;28;19909;-74
2023/05/02 14:02:02;;;;;;;;;;;19.40;52.90;;;;;;6265319;28;20015;-74
2023/05/02 14:05:03;;;;;;;;;;;19.40;52.80;;;;;;6274548;28;19909;-74
2023/05/02 14:08:04;;;;;;;;;;;19.40;52.80;;;;;;6264746;28;19913;-74
2023/05/02 14:11:04;;;;;;;;;;;19.40;52.80;;;;;;6249790;28;19917;-74
2023/05/02 14:14:05;;;;;;;;;;;19.40;52.80;;;;;;6263305;28;20362;-74
2023/05/02 14:17:06;;;;;;;;;;;19.40;52.90;;;;;;6274194;28;19935;-74
2023/05/02 14:20:09;;;;;;;;;;;19.40;52.90;;;;;;6274022;28;19916;-74
2023/05/02 14:23:09;;;;;;;;;;;19.40;52.90;;;;;;6273104;28;19958;-74
2023/05/02 14:26:11;;;;;;;;;;;19.40;52.90;;;;;;6272987;28;20359;-74
2023/05/02 14:29:12;;;;;;;;;;;19.30;52.90;;;;;;6261382;28;19909;-75
2023/05/02 14:32:13;;;;;;;;;;;19.30;52.80;;;;;;6247701;28;19963;-75
2023/05/02 14:35:13;;;;;;;;;;;19.40;52.90;;;;;;6266256;28;19924;-75
2023/05/02 14:38:14;;;;;;;;;;;19.40;52.90;;;;;;6273420;28;19917;-75
2023/05/02 14:41:14;;;;;;;;;;;19.40;52.90;;;;;;6272450;28;19913;-75
2023/05/02 14:44:15;;;;;;;;;;;19.30;52.80;;;;;;6273388;28;19936;-74
2023/05/02 14:47:16;;;;;;;;;;;19.40;52.90;;;;;;6273633;28;19915;-74
2023/05/02 14:50:16;;;;;;;;;;;19.30;52.80;;;;;;6273279;28;19929;-74
2023/05/02 14:53:17;;;;;;;;;;;19.30;52.90;;;;;;6273454;28;19909;-74
2023/05/02 14:56:18;;;;;;;;;;;19.30;52.90;;;;;;6266148;28;19913;-73
2023/05/02 14:59:18;;;;;;;;;;;19.30;53.00;;;;;;6268033;28;19909;-71
2023/05/02 15:02:20;;;;;;;;;;;19.30;53.00;;;;;;6260090;28;19966;-75
2023/05/02 15:05:21;;;;;;;;;;;19.30;53.00;;;;;;6262170;28;19952;-74
2023/05/02 15:08:21;;;;;;;;;;;19.30;53.00;;;;;;6263402;28;19916;-74
2023/05/02 15:11:22;;;;;;;;;;;19.30;53.10;;;;;;6271006;28;19932;-71
2023/05/02 15:14:23;;;;;;;;;;;19.30;53.10;;;;;;6281633;28;19909;-74
2023/05/02 15:17:24;;;;;;;;;;;19.30;53.10;;;;;;6270415;28;19913;-75
2023/05/02 15:20:25;;;;;;;;;;;19.30;53.10;;;;;;6262524;28;20000;-74
2023/05/02 15:23:26;;;;;;;;;;;19.30;53.50;;;;;;6246026;28;19909;-73
2023/05/02 15:26:26;;;;;;;;;;;19.30;53.10;;;;;;6268521;28;20354;-74
2023/05/02 15:29:27;;;;;;;;;;;19.30;53.10;;;;;;6267315;28;20044;-75
2023/05/02 15:32:28;;;;;;;;;;;19.30;53.00;;;;;;6245991;28;19916;-74
2023/05/02 15:35:28;;;;;;;;;;;19.30;53.00;;;;;;6251788;28;19920;-74
2023/05/02 15:38:29;;;;;;;;;;;19.30;53.00;;;;;;6271238;28;19959;-73
2023/05/02 15:41:30;;;;;;;;;;;19.40;53.20;;;;;;6261310;28;19916;-75
2023/05/02 15:44:34;;;;;;;;;;;19.40;53.10;;;;;;6271429;28;19913;-74
2023/05/02 15:47:35;;;;;;;;;;;19.40;53.10;;;;;;6271057;28;20000;-73
2023/05/02 15:50:36;;;;;;;;;;;19.40;53.10;;;;;;6269950;28;20423;-74
2023/05/02 15:53:41;;;;;;;;;;;19.40;53.10;;;;;;6287010;28;19917;-74
2023/05/02 15:56:41;;;;;;;;;;;19.40;53.10;;;;;;6281459;28;20281;-74
2023/05/02 15:59:42;;;;;;;;;;;19.40;53.10;;;;;;6259376;28;19928;-73
2023/05/02 16:02:42;;;;;;;;;;;19.40;53.10;;;;;;6263626;28;19909;-74
2023/05/02 16:05:43;;;;;;;;;;;19.40;53.10;;;;;;6246672;28;19916;-73
2023/05/02 16:08:43;;;;;;;;;;;19.30;53.10;;;;;;6272562;28;19917;-74
2023/05/02 16:11:44;;;;;;;;;;;19.40;53.10;;;;;;6271746;28;19921;-73
2023/05/02 16:14:45;;;;;;;;;;;19.30;53.10;;;;;;6268912;28;19912;-72
2023/05/02 16:17:47;;;;;;;;;;;19.30;53.10;;;;;;6243905;28;19920;-74
2023/05/02 16:20:48;;;;;;;;;;;19.30;53.10;;;;;;6249373;28;19955;-73
2023/05/02 16:23:49;;;;;;;;;;;19.30;53.10;;;;;;6253498;28;19908;-74
2023/05/02 16:26:50;;;;;;;;;;;19.30;53.10;;;;;;6261985;28;19915;-73
2023/05/02 16:29:50;;;;;;;;;;;19.30;53.10;;;;;;6267203;28;19909;-74
2023/05/02 16:32:51;;;;;;;;;;;19.30;53.10;;;;;;6258666;28;19987;-71
2023/05/02 16:36:01;;;;;;;;;;;19.30;53.10;;;;;;6246614;28;19920;-71
2023/05/02 16:39:02;;;;;;;;;;;19.30;53.10;;;;;;6266231;28;19936;-73
2023/05/02 16:42:03;;;;;;;;;;;19.30;53.10;;;;;;6254946;28;19909;-73
2023/05/02 16:45:03;;;;;;;;;;;19.30;53.10;;;;;;6266675;28;19909;-73
2023/05/02 16:48:04;;;;;;;;;;;19.30;53.10;;;;;;6257111;28;19913;-70
2023/05/02 16:51:05;;;;;;;;;;;19.30;53.10;;;;;;6258225;28;19921;-72
2023/05/02 16:54:06;;;;;;;;;;;19.30;53.10;;;;;;6243194;28;19913;-73
2023/05/02 16:57:07;;;;;;;;;;;19.30;53.10;;;;;;6252318;28;19916;-74
2023/05/02 17:00:09;;;;;;;;;;;19.30;53.10;;;;;;6267355;28;19916;-71
2023/05/02 17:03:10;;;;;;;;;;;19.30;53.10;;;;;;6265960;28;19908;-73
2023/05/02 17:06:11;;;;;;;;;;;19.30;53.20;;;;;;6283322;28;19967;-73
2023/05/02 17:09:11;;;;;;;;;;;19.30;53.20;;;;;;6258445;28;19992;-73
2023/05/02 17:12:13;;;;;;;;;;;19.30;53.20;;;;;;6255288;28;19920;-72
2023/05/02 17:15:14;;;;;;;;;;;19.30;53.20;;;;;;6241763;28;19921;-74
2023/05/02 17:18:15;;;;;;;;;;;19.30;53.20;;;;;;6251392;28;19913;-73
2023/05/02 17:21:16;;;;;;;;;;;19.30;53.20;;;;;;6241818;28;20361;-74
2023/05/02 17:24:16;;;;;;;;;;;19.30;53.20;;;;;;6261261;28;19918;-73
2023/05/02 17:27:17;;;;;;;;;;;19.30;53.20;;;;;;6267180;28;20687;-73
2023/05/02 17:30:18;;;;;;;;;;;19.30;53.20;;;;;;6265662;28;19919;-73
2023/05/02 17:33:19;;;;;;;;;;;19.30;53.20;;;;;;6267312;28;20003;-72
2023/05/02 17:36:20;;;;;;;;;;;19.30;53.20;;;;;;6265810;28;19923;-73
2023/05/02 17:39:21;;;;;;;;;;;19.30;53.20;;;;;;6241803;28;19913;-72